createdAt,value
2018-11-26T11:18:33.506Z,967.291
2018-11-26T11:18:49.774Z,967.296
2018-11-26T11:19:06.108Z,967.264
2018-11-26T11:19:22.401Z,967.301
2018-11-26T11:19:39.641Z,967.298
2018-11-26T11:19:55.938Z,967.257
2018-11-26T11:20:12.220Z,967.321
2018-11-26T11:20:28.506Z,967.312
2018-11-26T11:20:44.867Z,967.282
2018-11-26T11:21:01.160Z,967.324
2018-11-26T11:21:17.454Z,967.28
2018-11-26T11:21:33.744Z,967.243
2018-11-26T11:21:50.001Z,967.261
2018-11-26T11:22:06.329Z,967.325
2018-11-26T11:22:22.594Z,967.328
2018-11-26T11:22:38.882Z,967.227
2018-11-26T11:22:55.164Z,967.283
2018-11-26T11:23:11.457Z,967.299
2018-11-26T11:23:27.732Z,967.343
2018-11-26T11:23:44.255Z,967.29
2018-11-26T11:24:00.584Z,967.28
2018-11-26T11:24:16.902Z,967.3
2018-11-26T11:24:33.159Z,967.246
2018-11-26T11:24:49.408Z,967.248
2018-11-26T11:25:05.728Z,967.254
2018-11-26T11:25:22.044Z,967.24
2018-11-26T11:25:38.322Z,967.314
2018-11-26T11:25:54.599Z,967.269
2018-11-26T11:26:10.903Z,967.29
2018-11-26T11:26:28.286Z,967.286
2018-11-26T11:26:44.572Z,967.275
2018-11-26T11:27:01.109Z,967.264
2018-11-26T11:27:17.713Z,967.291
2018-11-26T11:27:33.990Z,967.259
2018-11-26T11:27:50.487Z,967.253
2018-11-26T11:28:06.775Z,967.309
2018-11-26T11:28:23.068Z,967.29
2018-11-26T11:28:39.660Z,967.29
2018-11-26T11:28:56.465Z,967.303
2018-11-26T11:29:13.813Z,967.298
2018-11-26T11:29:30.702Z,967.336
2018-11-26T11:29:47.726Z,967.339
2018-11-26T11:30:04.576Z,967.346
2018-11-26T11:30:21.349Z,967.23
2018-11-26T11:30:38.045Z,967.326
2018-11-26T11:30:54.720Z,967.365
2018-11-26T11:31:11.449Z,967.297
2018-11-26T11:31:27.848Z,967.265
2018-11-26T11:31:44.255Z,967.294
2018-11-26T11:32:01.147Z,967.285
2018-11-26T11:32:17.736Z,967.262
2018-11-26T11:32:34.381Z,967.311
2018-11-26T11:32:50.898Z,967.297
2018-11-26T11:33:41.486Z,967.277
2018-11-26T11:33:58.188Z,967.328
2018-11-26T11:34:14.505Z,967.283
2018-11-26T11:34:30.951Z,967.295
2018-11-26T11:34:47.585Z,967.272
2018-11-26T11:35:04.042Z,967.227
2018-11-26T11:35:20.709Z,967.318
2018-11-26T11:35:37.096Z,967.269
2018-11-26T11:35:53.912Z,967.238
2018-11-26T11:36:10.625Z,967.265
2018-11-26T11:36:27.119Z,967.316
2018-11-26T11:36:43.511Z,967.281
2018-11-26T11:36:59.977Z,967.259
2018-11-26T11:37:17.006Z,967.271
2018-11-26T11:37:33.510Z,967.332
2018-11-26T11:37:50.310Z,967.299
2018-11-26T11:38:06.740Z,967.29
2018-11-26T11:38:23.159Z,967.279
2018-11-26T11:38:40.046Z,967.269
2018-11-26T11:38:56.465Z,967.225
2018-11-26T11:39:13.246Z,967.278
2018-11-26T11:39:30.194Z,967.292
2018-11-26T11:39:46.621Z,967.313
2018-11-26T11:40:03.758Z,967.307
2018-11-26T11:40:20.325Z,967.292
2018-11-26T11:40:36.623Z,967.29
2018-11-26T11:40:52.907Z,967.29
2018-11-26T11:41:09.345Z,967.29
2018-11-26T11:41:25.775Z,967.336
2018-11-26T11:41:42.895Z,967.242
2018-11-26T11:41:59.718Z,967.258
2018-11-26T11:42:16.399Z,967.314
2018-11-26T11:42:32.868Z,967.265
2018-11-26T11:42:49.461Z,967.296
2018-11-26T11:43:05.719Z,967.275
2018-11-26T11:43:22.654Z,967.298
2018-11-26T11:43:39.304Z,967.316
2018-11-26T11:43:55.930Z,967.286
2018-11-26T11:44:12.308Z,967.33
2018-11-26T11:44:29.087Z,967.295
2018-11-26T11:44:45.575Z,967.247
2018-11-26T11:45:02.259Z,967.237
2018-11-26T11:45:18.726Z,967.312
2018-11-26T11:45:36.164Z,967.334
2018-11-26T11:45:52.769Z,967.306
2018-11-26T11:46:09.294Z,967.309
2018-11-26T11:46:25.876Z,967.335
2018-11-26T11:46:42.573Z,967.278
2018-11-26T11:46:59.485Z,967.336
2018-11-26T11:47:15.898Z,967.31
2018-11-26T11:47:32.354Z,967.323
2018-11-26T11:47:48.794Z,967.331
2018-11-26T11:48:06.060Z,967.308
2018-11-26T11:48:23.358Z,967.346
2018-11-26T11:48:40.011Z,967.279
2018-11-26T11:48:56.722Z,967.323
2018-11-26T11:49:13.068Z,967.357
2018-11-26T11:49:30.707Z,967.383
2018-11-26T11:49:47.269Z,967.308
2018-11-26T11:50:04.906Z,967.32
2018-11-26T11:50:21.367Z,967.288
2018-11-26T11:50:37.672Z,967.286
2018-11-26T11:50:54.090Z,967.271
2018-11-26T11:51:10.885Z,967.264
2018-11-26T11:51:27.452Z,967.238
2018-11-26T11:51:43.880Z,967.278
2018-11-26T11:52:00.866Z,967.267
2018-11-26T11:52:17.806Z,967.297
2018-11-26T11:52:34.241Z,967.227
2018-11-26T11:52:50.611Z,967.221
2018-11-26T11:53:07.025Z,967.22
2018-11-26T11:53:23.864Z,967.251
2018-11-26T11:53:40.552Z,967.232
2018-11-26T11:53:57.471Z,967.275
2018-11-26T11:54:13.897Z,967.271
2018-11-26T11:54:30.877Z,967.235
2018-11-26T11:54:47.789Z,967.261
2018-11-26T11:55:04.149Z,967.243
2018-11-26T11:55:20.540Z,967.286
2018-11-26T11:55:37.029Z,967.216
2018-11-26T11:55:53.582Z,967.237
2018-11-26T11:56:10.089Z,967.266
2018-11-26T11:56:26.510Z,967.205
2018-11-26T11:56:43.303Z,967.226
2018-11-26T11:56:59.836Z,967.242
2018-11-26T11:57:16.204Z,967.289
2018-11-26T11:57:32.580Z,967.257
2018-11-26T11:57:49.006Z,967.226
2018-11-26T11:58:05.419Z,967.241
2018-11-26T11:58:22.022Z,967.236
2018-11-26T11:58:38.496Z,967.292
2018-11-26T11:58:55.399Z,967.235
2018-11-26T11:59:11.972Z,967.243
2018-11-26T11:59:28.376Z,967.265
2018-11-26T11:59:45.129Z,967.251
2018-11-26T12:00:01.616Z,967.221
2018-11-26T12:00:18.175Z,967.248
2018-11-26T12:00:34.627Z,967.205
2018-11-26T12:00:51.059Z,967.243
2018-11-26T12:01:10.630Z,967.304
2018-11-26T12:01:27.500Z,967.274
2018-11-26T12:01:44.040Z,967.247
2018-11-26T12:02:00.358Z,967.277
2018-11-26T12:02:16.754Z,967.22
2018-11-26T12:02:33.209Z,967.227
2018-11-26T12:02:49.674Z,967.262
2018-11-26T12:03:06.232Z,967.252
2018-11-26T12:03:22.809Z,967.269
2018-11-26T12:03:39.178Z,967.256
2018-11-26T12:03:55.576Z,967.278
2018-11-26T12:04:12.296Z,967.271
2018-11-26T12:04:28.707Z,967.247
2018-11-26T12:04:45.089Z,967.286
2018-11-26T12:05:01.631Z,967.285
2018-11-26T12:05:17.904Z,967.267
2018-11-26T12:05:34.153Z,967.223
2018-11-26T12:05:50.432Z,967.27
2018-11-26T12:06:06.734Z,967.295
2018-11-26T12:06:23.077Z,967.272
2018-11-26T12:06:39.324Z,967.262
2018-11-26T12:06:55.616Z,967.275
2018-11-26T12:07:11.895Z,967.266
2018-11-26T12:07:28.169Z,967.322
2018-11-26T12:07:44.448Z,967.285
2018-11-26T12:08:00.720Z,967.297
2018-11-26T12:08:16.973Z,967.228
2018-11-26T12:08:33.242Z,967.271
2018-11-26T12:08:49.504Z,967.278
2018-11-26T12:09:05.798Z,967.294
2018-11-26T12:09:22.063Z,967.286
2018-11-26T12:09:38.315Z,967.264
2018-11-26T12:09:54.703Z,967.26
2018-11-26T12:10:11.237Z,967.328
2018-11-26T12:10:27.482Z,967.27
2018-11-26T12:10:43.756Z,967.274
2018-11-26T12:11:00.017Z,967.289
2018-11-26T12:11:16.244Z,967.248
2018-11-26T12:11:32.497Z,967.273
2018-11-26T12:11:48.803Z,967.29
2018-11-26T12:12:05.070Z,967.283
2018-11-26T12:12:21.335Z,967.251
2018-11-26T12:12:37.604Z,967.273
2018-11-26T12:12:53.867Z,967.273
2018-11-26T12:13:10.151Z,967.229
2018-11-26T12:13:26.416Z,967.207
2018-11-26T12:13:42.711Z,967.224
2018-11-26T12:13:59.006Z,967.272
2018-11-26T12:14:15.245Z,967.245
2018-11-26T12:14:31.539Z,967.204
2018-11-26T12:14:47.784Z,967.235
2018-11-26T12:15:04.064Z,967.229
2018-11-26T12:15:20.591Z,967.173
2018-11-26T12:15:36.852Z,967.216
2018-11-26T12:15:53.170Z,967.239
2018-11-26T12:16:09.442Z,967.208
2018-11-26T12:16:25.707Z,967.216
2018-11-26T12:16:42.012Z,967.241
2018-11-26T12:16:58.291Z,967.254
2018-11-26T12:17:14.651Z,967.178
2018-11-26T12:17:30.922Z,967.226
2018-11-26T12:17:47.179Z,967.26
2018-11-26T12:18:03.461Z,967.281
2018-11-26T12:18:19.743Z,967.239
2018-11-26T12:18:36.114Z,967.26
2018-11-26T12:18:52.382Z,967.309
2018-11-26T12:19:08.639Z,967.252
2018-11-26T12:19:25.151Z,967.271
2018-11-26T12:19:41.461Z,967.253
2018-11-26T12:19:57.711Z,967.264
2018-11-26T12:20:13.964Z,967.233
2018-11-26T12:20:30.507Z,967.312
2018-11-26T12:20:46.812Z,967.268
2018-11-26T12:21:03.079Z,967.267
2018-11-26T12:21:19.426Z,967.267
2018-11-26T12:21:35.692Z,967.3
2018-11-26T12:21:51.963Z,967.259
2018-11-26T12:22:08.246Z,967.3
2018-11-26T12:22:24.562Z,967.301
2018-11-26T12:22:40.937Z,967.29
2018-11-26T12:22:57.225Z,967.313
2018-11-26T12:23:13.496Z,967.301
2018-11-26T12:23:29.737Z,967.286
2018-11-26T12:23:46.012Z,967.282
2018-11-26T12:24:02.357Z,967.31
2018-11-26T12:24:18.666Z,967.314
2018-11-26T12:24:34.944Z,967.33
2018-11-26T12:24:51.212Z,967.333
2018-11-26T12:25:07.459Z,967.249
2018-11-26T12:25:23.708Z,967.322
2018-11-26T12:25:40.326Z,967.283
2018-11-26T12:25:56.593Z,967.3
2018-11-26T12:26:12.860Z,967.282
2018-11-26T12:26:29.137Z,967.316
2018-11-26T12:26:45.427Z,967.32
2018-11-26T12:27:01.706Z,967.277
2018-11-26T12:27:17.988Z,967.317
2018-11-26T12:27:34.337Z,967.243
2018-11-26T12:27:50.623Z,967.281
2018-11-26T12:28:06.893Z,967.328
2018-11-26T12:28:23.175Z,967.236
2018-11-26T12:28:39.440Z,967.248
2018-11-26T12:28:55.749Z,967.29
2018-11-26T12:29:12.013Z,967.267
2018-11-26T12:29:28.272Z,967.3
2018-11-26T12:29:44.567Z,967.278
2018-11-26T12:30:00.808Z,967.286
2018-11-26T12:30:17.068Z,967.326
2018-11-26T12:30:33.402Z,967.298
2018-11-26T12:30:49.946Z,967.27
2018-11-26T12:31:06.218Z,967.283
2018-11-26T12:31:22.462Z,967.288
2018-11-26T12:31:38.771Z,967.277
2018-11-26T12:31:55.087Z,967.312
2018-11-26T12:32:11.357Z,967.283
2018-11-26T12:32:27.599Z,967.3
2018-11-26T12:32:43.868Z,967.286
2018-11-26T12:33:00.126Z,967.334
2018-11-26T12:33:16.409Z,967.29
2018-11-26T12:33:32.665Z,967.313
2018-11-26T12:33:48.970Z,967.279
2018-11-26T12:34:05.273Z,967.266
2018-11-26T12:34:21.529Z,967.337
2018-11-26T12:34:38.104Z,967.298
2018-11-26T12:34:54.353Z,967.31
2018-11-26T12:35:10.692Z,967.383
2018-11-26T12:35:26.942Z,967.292
2018-11-26T12:35:43.264Z,967.346
2018-11-26T12:35:59.776Z,967.328
2018-11-26T12:36:16.028Z,967.328
2018-11-26T12:36:32.302Z,967.323
2018-11-26T12:36:48.607Z,967.341
2018-11-26T12:37:04.845Z,967.322
2018-11-26T12:37:21.082Z,967.374
2018-11-26T12:37:37.352Z,967.407
2018-11-26T12:37:53.595Z,967.358
2018-11-26T12:38:09.864Z,967.325
2018-11-26T12:38:26.119Z,967.341
2018-11-26T12:38:42.387Z,967.365
2018-11-26T12:38:58.654Z,967.359
2018-11-26T12:39:14.931Z,967.34
2018-11-26T12:39:31.249Z,967.361
2018-11-26T12:39:47.528Z,967.296
2018-11-26T12:40:03.806Z,967.337
2018-11-26T12:40:20.138Z,967.411
2018-11-26T12:40:36.509Z,967.332
2018-11-26T12:40:52.777Z,967.317
2018-11-26T12:41:09.293Z,967.325
2018-11-26T12:41:25.546Z,967.352
2018-11-26T12:41:41.804Z,967.299
2018-11-26T12:41:58.075Z,967.282
2018-11-26T12:42:14.315Z,967.291
2018-11-26T12:42:30.625Z,967.33
2018-11-26T12:42:46.902Z,967.329
2018-11-26T12:43:03.186Z,967.302
2018-11-26T12:43:19.458Z,967.289
2018-11-26T12:43:35.765Z,967.319
2018-11-26T12:43:52.060Z,967.301
2018-11-26T12:44:08.325Z,967.323
2018-11-26T12:44:24.587Z,967.357
2018-11-26T12:44:40.826Z,967.326
2018-11-26T12:44:57.059Z,967.308
2018-11-26T12:45:13.392Z,967.382
2018-11-26T12:45:29.732Z,967.305
2018-11-26T12:45:46.060Z,967.371
2018-11-26T12:46:02.338Z,967.357
2018-11-26T12:46:18.911Z,967.339
2018-11-26T12:46:35.218Z,967.321
2018-11-26T12:46:51.485Z,967.403
2018-11-26T12:47:07.730Z,967.357
2018-11-26T12:47:24.011Z,967.351
2018-11-26T12:47:40.264Z,967.382
2018-11-26T12:47:56.510Z,967.408
2018-11-26T12:48:12.773Z,967.391
2018-11-26T12:48:29.065Z,967.378
2018-11-26T12:48:45.388Z,967.435
2018-11-26T12:49:01.669Z,967.444
2018-11-26T12:49:18.068Z,967.44
2018-11-26T12:49:34.346Z,967.399
2018-11-26T12:49:50.871Z,967.365
2018-11-26T12:50:07.157Z,967.374
2018-11-26T12:50:23.424Z,967.454
2018-11-26T12:50:39.686Z,967.402
2018-11-26T12:50:55.945Z,967.397
2018-11-26T12:51:12.179Z,967.356
2018-11-26T12:51:28.747Z,967.399
2018-11-26T12:51:45.000Z,967.376
2018-11-26T12:52:01.251Z,967.416
2018-11-26T12:52:17.532Z,967.366
2018-11-26T12:52:33.861Z,967.436
2018-11-26T12:52:50.207Z,967.427
2018-11-26T12:53:06.519Z,967.443
2018-11-26T12:53:22.814Z,967.456
2018-11-26T12:53:39.047Z,967.467
2018-11-26T12:53:55.292Z,967.438
2018-11-26T12:54:11.552Z,967.383
2018-11-26T12:54:27.827Z,967.448
2018-11-26T12:54:44.142Z,967.51
2018-11-26T12:55:00.413Z,967.492
2018-11-26T12:55:16.684Z,967.455
2018-11-26T12:55:33.014Z,967.391
2018-11-26T12:55:49.261Z,967.441
2018-11-26T12:56:05.525Z,967.444
2018-11-26T12:56:21.771Z,967.444
2018-11-26T12:56:38.289Z,967.479
2018-11-26T12:56:54.591Z,967.431
2018-11-26T12:57:10.847Z,967.447
2018-11-26T12:57:27.107Z,967.486
2018-11-26T12:57:43.378Z,967.486
2018-11-26T12:57:59.661Z,967.406
2018-11-26T12:58:15.907Z,967.48
2018-11-26T12:58:32.245Z,967.482
2018-11-26T12:58:48.555Z,967.447
2018-11-26T12:59:04.795Z,967.5
2018-11-26T12:59:21.050Z,967.496
2018-11-26T12:59:37.334Z,967.394
2018-11-26T12:59:53.580Z,967.459
2018-11-26T13:00:09.894Z,967.451
2018-11-26T13:00:26.180Z,967.455
2018-11-26T13:00:42.439Z,967.481
2018-11-26T13:00:58.669Z,967.431
2018-11-26T13:01:14.909Z,967.469
2018-11-26T13:01:31.197Z,967.417
2018-11-26T13:01:47.759Z,967.478
2018-11-26T13:02:04.041Z,967.442
2018-11-26T13:02:20.281Z,967.433
2018-11-26T13:02:36.537Z,967.485
2018-11-26T13:02:52.789Z,967.492
2018-11-26T13:03:09.072Z,967.535
2018-11-26T13:03:25.324Z,967.474
2018-11-26T13:03:41.576Z,967.484
2018-11-26T13:03:57.863Z,967.457
2018-11-26T13:04:14.111Z,967.457
2018-11-26T13:04:30.388Z,967.506
2018-11-26T13:04:46.629Z,967.484
2018-11-26T13:05:03.174Z,967.457
2018-11-26T13:05:19.428Z,967.482
2018-11-26T13:05:35.696Z,967.482
2018-11-26T13:05:51.964Z,967.521
2018-11-26T13:06:08.285Z,967.577
2018-11-26T13:06:24.672Z,967.495
2018-11-26T13:06:40.929Z,967.535
2018-11-26T13:06:57.485Z,967.524
2018-11-26T13:07:13.739Z,967.507
2018-11-26T13:07:30.071Z,967.481
2018-11-26T13:07:46.369Z,967.522
2018-11-26T13:08:02.744Z,967.526
2018-11-26T13:08:18.993Z,967.571
2018-11-26T13:08:35.261Z,967.564
2018-11-26T13:08:51.508Z,967.523
2018-11-26T13:09:07.764Z,967.546
2018-11-26T13:09:23.993Z,967.549
2018-11-26T13:09:40.251Z,967.531
2018-11-26T13:09:56.518Z,967.529
2018-11-26T13:10:12.756Z,967.552
2018-11-26T13:10:29.055Z,967.554
2018-11-26T13:10:45.305Z,967.546
2018-11-26T13:11:01.611Z,967.541
2018-11-26T13:11:17.908Z,967.539
2018-11-26T13:11:34.146Z,967.56
2018-11-26T13:11:50.373Z,967.525
2018-11-26T13:12:06.942Z,967.558
2018-11-26T13:12:23.213Z,967.588
2018-11-26T13:12:39.456Z,967.532
2018-11-26T13:12:55.717Z,967.56
2018-11-26T13:13:11.968Z,967.527
2018-11-26T13:13:28.241Z,967.554
2018-11-26T13:13:44.482Z,967.496
2018-11-26T13:14:00.719Z,967.555
2018-11-26T13:14:17.084Z,967.6
2018-11-26T13:14:33.350Z,967.53
2018-11-26T13:14:49.579Z,967.534
2018-11-26T13:15:05.831Z,967.531
2018-11-26T13:15:22.144Z,967.551
2018-11-26T13:15:38.420Z,967.512
2018-11-26T13:15:54.686Z,967.567
2018-11-26T13:16:10.928Z,967.523
2018-11-26T13:16:27.241Z,967.51
2018-11-26T13:16:43.496Z,967.575
2018-11-26T13:16:59.748Z,967.524
2018-11-26T13:17:16.251Z,967.537
2018-11-26T13:17:32.547Z,967.577
2018-11-26T13:17:48.797Z,967.563
2018-11-26T13:18:05.046Z,967.589
2018-11-26T13:18:21.296Z,967.587
2018-11-26T13:18:37.680Z,967.609
2018-11-26T13:18:53.962Z,967.601
2018-11-26T13:19:10.211Z,967.566
2018-11-26T13:19:26.497Z,967.554
2018-11-26T13:19:42.757Z,967.554
2018-11-26T13:19:59.035Z,967.566
2018-11-26T13:20:15.539Z,967.552
2018-11-26T13:20:31.839Z,967.568
2018-11-26T13:20:48.252Z,967.617
2018-11-26T13:21:04.509Z,967.593
2018-11-26T13:21:20.850Z,967.63
2018-11-26T13:21:37.113Z,967.577
2018-11-26T13:21:53.417Z,967.612
2018-11-26T13:22:09.675Z,967.593
2018-11-26T13:22:26.236Z,967.572
2018-11-26T13:22:42.526Z,967.573
2018-11-26T13:22:58.772Z,967.665
2018-11-26T13:23:15.031Z,967.59
2018-11-26T13:23:31.324Z,967.642
2018-11-26T13:23:47.654Z,967.612
2018-11-26T13:24:03.915Z,967.612
2018-11-26T13:24:20.283Z,967.563
2018-11-26T13:24:36.524Z,967.588
2018-11-26T13:24:52.773Z,967.595
2018-11-26T13:25:09.028Z,967.644
2018-11-26T13:25:25.326Z,967.597
2018-11-26T13:25:42.114Z,967.643
2018-11-26T13:25:59.146Z,967.625
2018-11-26T13:26:15.397Z,967.616
2018-11-26T13:26:31.674Z,967.666
2018-11-26T13:26:47.941Z,967.614
2018-11-26T13:27:04.204Z,967.626
2018-11-26T13:27:20.490Z,967.634
2018-11-26T13:27:37.137Z,967.641
2018-11-26T13:27:53.435Z,967.664
2018-11-26T13:28:09.690Z,967.658
2018-11-26T13:28:25.960Z,967.627
2018-11-26T13:28:42.234Z,967.59
2018-11-26T13:28:58.489Z,967.621
2018-11-26T13:29:14.726Z,967.671
2018-11-26T13:29:30.990Z,967.663
2018-11-26T13:29:47.262Z,967.645
2018-11-26T13:30:03.509Z,967.689
2018-11-26T13:30:19.758Z,967.708
2018-11-26T13:30:36.057Z,967.675
2018-11-26T13:30:52.332Z,967.657
2018-11-26T13:31:08.585Z,967.711
2018-11-26T13:31:24.858Z,967.722
2018-11-26T13:31:41.124Z,967.693
2018-11-26T13:31:57.392Z,967.713
2018-11-26T13:32:13.651Z,967.695
2018-11-26T13:32:29.946Z,967.686
2018-11-26T13:32:46.519Z,967.703
2018-11-26T13:33:02.819Z,967.688
2018-11-26T13:33:19.071Z,967.724
2018-11-26T13:33:35.326Z,967.697
2018-11-26T13:33:51.578Z,967.735
2018-11-26T13:34:08.169Z,967.712
2018-11-26T13:34:24.475Z,967.686
2018-11-26T13:34:40.745Z,967.753
2018-11-26T13:34:56.999Z,967.663
2018-11-26T13:35:13.235Z,967.671
2018-11-26T13:35:29.755Z,967.695
2018-11-26T13:35:46.026Z,967.677
2018-11-26T13:36:02.365Z,967.682
2018-11-26T13:36:18.646Z,967.654
2018-11-26T13:36:34.916Z,967.667
2018-11-26T13:36:51.263Z,967.684
2018-11-26T13:37:07.525Z,967.67
2018-11-26T13:37:23.831Z,967.711
2018-11-26T13:37:40.142Z,967.61
2018-11-26T13:37:56.665Z,967.7
2018-11-26T13:38:12.912Z,967.682
2018-11-26T13:38:29.165Z,967.726
2018-11-26T13:38:45.406Z,967.65
2018-11-26T13:39:01.723Z,967.693
2018-11-26T13:39:18.012Z,967.686
2018-11-26T13:39:34.304Z,967.727
2018-11-26T13:39:50.568Z,967.71
2018-11-26T13:40:06.826Z,967.69
2018-11-26T13:40:23.150Z,967.688
2018-11-26T13:40:39.448Z,967.696
2018-11-26T13:40:55.710Z,967.688
2018-11-26T13:41:11.955Z,967.715
2018-11-26T13:41:28.214Z,967.698
2018-11-26T13:41:44.532Z,967.69
2018-11-26T13:42:00.768Z,967.709
2018-11-26T13:42:17.056Z,967.691
2018-11-26T13:42:33.319Z,967.71
2018-11-26T13:42:49.585Z,967.728
2018-11-26T13:43:06.117Z,967.692
2018-11-26T13:43:22.381Z,967.726
2018-11-26T13:43:38.649Z,967.773
2018-11-26T13:43:54.895Z,967.725
2018-11-26T13:44:11.146Z,967.75
2018-11-26T13:44:27.373Z,967.733
2018-11-26T13:44:43.615Z,967.74
2018-11-26T13:44:59.842Z,967.73
2018-11-26T13:45:16.122Z,967.766
2018-11-26T13:45:32.346Z,967.758
2018-11-26T13:45:48.600Z,967.762
2018-11-26T13:46:04.931Z,967.74
2018-11-26T13:46:21.224Z,967.711
2018-11-26T13:46:37.480Z,967.775
2018-11-26T13:46:53.751Z,967.814
2018-11-26T13:47:10.025Z,967.736
2018-11-26T13:47:26.258Z,967.76
2018-11-26T13:47:42.490Z,967.794
2018-11-26T13:47:58.742Z,967.763
2018-11-26T13:48:15.255Z,967.749
2018-11-26T13:48:31.551Z,967.785
2018-11-26T13:48:47.823Z,967.821
2018-11-26T13:49:04.102Z,967.793
2018-11-26T13:49:20.430Z,967.788
2018-11-26T13:49:36.716Z,967.787
2018-11-26T13:49:52.965Z,967.813
2018-11-26T13:50:09.243Z,967.789
2018-11-26T13:50:25.510Z,967.841
2018-11-26T13:50:42.045Z,967.826
2018-11-26T13:50:58.344Z,967.814
2018-11-26T13:51:14.588Z,967.804
2018-11-26T13:51:30.856Z,967.901
2018-11-26T13:51:47.157Z,967.883
2018-11-26T13:52:03.425Z,967.864
2018-11-26T13:52:19.729Z,967.873
2018-11-26T13:52:36.036Z,967.864
2018-11-26T13:52:52.286Z,967.864
2018-11-26T13:53:08.603Z,967.844
2018-11-26T13:53:25.191Z,967.903
2018-11-26T13:53:41.473Z,967.866
2018-11-26T13:53:57.707Z,967.891
2018-11-26T13:54:13.969Z,967.866
2018-11-26T13:54:30.213Z,967.885
2018-11-26T13:54:46.566Z,967.853
2018-11-26T13:55:02.801Z,967.879
2018-11-26T13:55:19.075Z,967.895
2018-11-26T13:55:35.359Z,967.865
2018-11-26T13:55:51.626Z,967.889
2018-11-26T13:56:07.884Z,967.952
2018-11-26T13:56:24.129Z,967.837
2018-11-26T13:56:40.373Z,967.859
2018-11-26T13:56:56.605Z,967.911
2018-11-26T13:57:12.858Z,967.892
2018-11-26T13:57:29.112Z,967.89
2018-11-26T13:57:45.383Z,967.915
2018-11-26T13:58:01.643Z,967.845
2018-11-26T13:58:17.951Z,967.933
2018-11-26T13:58:34.480Z,967.882
2018-11-26T13:58:50.749Z,967.945
2018-11-26T13:59:07.005Z,967.894
2018-11-26T13:59:23.273Z,967.922
2018-11-26T13:59:39.508Z,967.905
2018-11-26T13:59:55.769Z,967.876
2018-11-26T14:00:12.001Z,967.867
2018-11-26T14:00:28.259Z,967.852
2018-11-26T14:00:44.525Z,967.896
2018-11-26T14:01:00.819Z,967.865
2018-11-26T14:01:17.188Z,967.915
2018-11-26T14:01:33.531Z,967.911
2018-11-26T14:01:49.788Z,967.902
2018-11-26T14:02:06.030Z,967.875
2018-11-26T14:02:22.340Z,967.896
2018-11-26T14:02:38.826Z,967.887
2018-11-26T14:02:55.081Z,967.886
2018-11-26T14:03:11.340Z,967.864
2018-11-26T14:03:27.590Z,967.922
2018-11-26T14:03:44.110Z,967.885
2018-11-26T14:04:00.393Z,967.897
2018-11-26T14:04:16.685Z,967.893
2018-11-26T14:04:32.950Z,967.903
2018-11-26T14:04:49.175Z,967.973
2018-11-26T14:05:05.410Z,967.889
2018-11-26T14:05:21.665Z,967.892
2018-11-26T14:05:37.916Z,967.883
2018-11-26T14:05:54.426Z,967.935
2018-11-26T14:06:10.679Z,967.878
2018-11-26T14:06:26.934Z,967.904
2018-11-26T14:06:43.171Z,967.918
2018-11-26T14:06:59.411Z,967.922
2018-11-26T14:07:15.736Z,967.904
2018-11-26T14:07:32.015Z,967.949
2018-11-26T14:07:48.303Z,967.924
2018-11-26T14:08:04.566Z,967.94
2018-11-26T14:08:20.808Z,967.927
2018-11-26T14:08:37.062Z,967.914
2018-11-26T14:08:53.569Z,967.892
2018-11-26T14:09:09.826Z,967.962
2018-11-26T14:09:26.097Z,967.904
2018-11-26T14:09:42.388Z,967.956
2018-11-26T14:09:59.027Z,967.95
2018-11-26T14:10:15.333Z,967.941
2018-11-26T14:10:31.579Z,967.984
2018-11-26T14:10:47.860Z,967.96
2018-11-26T14:11:04.185Z,967.917
2018-11-26T14:11:20.420Z,967.966
2018-11-26T14:11:36.703Z,967.96
2018-11-26T14:11:53.000Z,967.986
2018-11-26T14:12:09.259Z,967.941
2018-11-26T14:12:25.502Z,968.007
2018-11-26T14:12:41.815Z,967.964
2018-11-26T14:12:58.076Z,967.984
2018-11-26T14:13:14.375Z,967.963
2018-11-26T14:13:30.698Z,968.016
2018-11-26T14:13:46.953Z,967.955
2018-11-26T14:14:03.482Z,967.949
2018-11-26T14:14:19.739Z,968.005
2018-11-26T14:14:35.980Z,968.006
2018-11-26T14:14:52.296Z,968.017
2018-11-26T14:15:08.561Z,968.056
2018-11-26T14:15:24.817Z,968.056
2018-11-26T14:15:41.156Z,967.985
2018-11-26T14:15:57.543Z,968.035
2018-11-26T14:16:15.458Z,968.014
2018-11-26T14:16:31.732Z,968.069
2018-11-26T14:16:47.989Z,968.042
2018-11-26T14:17:04.229Z,968.072
2018-11-26T14:17:20.482Z,968.026
2018-11-26T14:17:36.907Z,968.071
2018-11-26T14:17:53.156Z,968.044
2018-11-26T14:18:09.416Z,968.022
2018-11-26T14:18:25.683Z,968.027
2018-11-26T14:18:42.035Z,968.079
2018-11-26T14:18:58.364Z,968.048
2018-11-26T14:19:14.932Z,968.044
2018-11-26T14:19:31.189Z,968.074
2018-11-26T14:19:47.460Z,968.068
2018-11-26T14:20:03.689Z,968.035
2018-11-26T14:20:19.949Z,968.092
2018-11-26T14:20:36.244Z,968.101
2018-11-26T14:20:52.519Z,968.035
2018-11-26T14:21:09.112Z,968.047
2018-11-26T14:21:25.339Z,968.067
2018-11-26T14:21:41.597Z,968.061
2018-11-26T14:21:57.881Z,968.099
2018-11-26T14:22:14.169Z,968.062
2018-11-26T14:22:30.444Z,968.071
2018-11-26T14:22:46.750Z,968.083
2018-11-26T14:23:03.008Z,968.1
2018-11-26T14:23:19.274Z,968.046
2018-11-26T14:23:35.612Z,968.086
2018-11-26T14:23:51.876Z,968.087
2018-11-26T14:24:08.124Z,968.106
2018-11-26T14:24:24.640Z,968.064
2018-11-26T14:24:40.877Z,968.02
2018-11-26T14:24:57.132Z,968.024
2018-11-26T14:25:13.455Z,968.032
2018-11-26T14:25:29.748Z,968.072
2018-11-26T14:25:45.988Z,968.102
2018-11-26T14:26:02.327Z,968.081
2018-11-26T14:26:18.583Z,968.102
2018-11-26T14:26:34.856Z,968.079
2018-11-26T14:26:51.108Z,968.08
2018-11-26T14:27:07.355Z,968.062
2018-11-26T14:27:23.627Z,968.065
2018-11-26T14:27:39.936Z,968.06
2018-11-26T14:27:56.241Z,968.136
2018-11-26T14:28:12.539Z,968.1
2018-11-26T14:28:28.776Z,968.066
2018-11-26T14:28:45.087Z,968.14
2018-11-26T14:29:01.372Z,968.146
2018-11-26T14:29:17.611Z,968.094
2018-11-26T14:29:34.184Z,968.173
2018-11-26T14:29:50.445Z,968.067
2018-11-26T14:30:06.691Z,968.141
2018-11-26T14:30:22.933Z,968.151
2018-11-26T14:30:39.264Z,968.123
2018-11-26T14:30:55.520Z,968.167
2018-11-26T14:31:11.795Z,968.079
2018-11-26T14:31:28.055Z,968.13
2018-11-26T14:31:44.344Z,968.089
2018-11-26T14:32:00.580Z,968.134
2018-11-26T14:32:16.848Z,968.111
2018-11-26T14:32:33.125Z,968.14
2018-11-26T14:32:49.357Z,968.153
2018-11-26T14:33:05.620Z,968.126
2018-11-26T14:33:21.973Z,968.07
2018-11-26T14:33:38.258Z,968.128
2018-11-26T14:33:54.488Z,968.103
2018-11-26T14:34:10.768Z,968.093
2018-11-26T14:34:27.028Z,968.091
2018-11-26T14:34:43.598Z,968.117
2018-11-26T14:34:59.890Z,968.13
2018-11-26T14:35:16.244Z,968.155
2018-11-26T14:35:32.600Z,968.14
2018-11-26T14:35:48.830Z,968.101
2018-11-26T14:36:05.095Z,968.141
2018-11-26T14:36:21.606Z,968.178
2018-11-26T14:36:37.847Z,968.12
2018-11-26T14:36:54.103Z,968.156
2018-11-26T14:37:10.405Z,968.135
2018-11-26T14:37:26.669Z,968.16
2018-11-26T14:37:42.915Z,968.15